createdAt,value
2017-09-12T00:02:11.360Z,23.13
2017-09-12T00:04:39.179Z,8.57
2017-09-12T00:07:07.102Z,5.10
2017-09-12T00:09:34.945Z,11.00
2017-09-12T00:12:03.592Z,4.50
2017-09-12T00:14:31.519Z,6.20
2017-09-12T00:16:59.399Z,5.53
2017-09-12T00:19:27.251Z,4.53
2017-09-12T00:21:55.068Z,8.00
2017-09-12T00:24:22.911Z,4.03
2017-09-12T00:26:50.807Z,7.37
2017-09-12T00:29:19.490Z,11.03
2017-09-12T00:31:47.430Z,6.43
2017-09-12T00:34:15.295Z,9.33
2017-09-12T00:36:43.141Z,9.57
2017-09-12T00:39:10.977Z,10.87
2017-09-12T00:41:39.666Z,6.97
2017-09-12T00:44:07.627Z,7.43
2017-09-12T00:46:36.296Z,11.07
2017-09-12T00:49:04.147Z,10.50
2017-09-12T00:51:32.039Z,16.67
2017-09-12T00:54:00.735Z,6.03
2017-09-12T00:56:28.733Z,8.37
2017-09-12T00:58:56.704Z,14.77
2017-09-12T01:01:24.562Z,7.80
2017-09-12T01:03:52.443Z,11.93
2017-09-12T01:06:20.333Z,18.47
2017-09-12T01:08:48.263Z,10.83
2017-09-12T01:11:16.153Z,11.17
2017-09-12T01:13:43.973Z,13.30
2017-09-12T01:16:11.837Z,14.33
2017-09-12T01:18:39.716Z,10.43
2017-09-12T01:21:07.587Z,11.40
2017-09-12T01:23:35.512Z,10.23
2017-09-12T01:26:03.451Z,11.83
2017-09-12T01:28:31.315Z,10.70
2017-09-12T01:30:59.256Z,9.00
2017-09-12T01:33:27.948Z,11.23
2017-09-12T01:35:55.859Z,12.10
2017-09-12T01:38:23.846Z,12.20
2017-09-12T01:40:51.717Z,7.37
2017-09-12T01:43:19.672Z,10.90
2017-09-12T01:45:47.499Z,10.70
2017-09-12T01:48:15.412Z,9.37
2017-09-12T01:50:43.234Z,12.03
2017-09-12T01:53:11.134Z,14.27
2017-09-12T01:55:39.021Z,11.50
2017-09-12T01:58:06.874Z,17.30
2017-09-12T02:00:34.758Z,13.53
2017-09-12T02:03:02.665Z,13.57
2017-09-12T02:05:30.488Z,10.83
2017-09-12T02:07:59.147Z,14.40
2017-09-12T02:10:27.044Z,9.23
2017-09-12T02:12:54.977Z,10.67
2017-09-12T02:15:22.815Z,10.40
2017-09-12T02:17:50.659Z,10.60
2017-09-12T02:20:18.487Z,12.47
2017-09-12T02:22:46.320Z,21.10
2017-09-12T02:25:14.145Z,17.90
2017-09-12T02:27:42.001Z,11.23
2017-09-12T02:30:10.591Z,9.57
2017-09-12T02:32:39.190Z,18.97
2017-09-12T02:35:07.079Z,10.70
2017-09-12T02:37:35.114Z,7.43
2017-09-12T02:40:03.042Z,12.83
2017-09-12T02:42:30.876Z,9.87
2017-09-12T02:44:58.796Z,18.77
2017-09-12T02:47:26.743Z,8.87
2017-09-12T02:49:54.561Z,11.87
2017-09-12T02:52:22.416Z,17.13
2017-09-12T02:54:50.311Z,12.23
2017-09-12T02:57:18.153Z,9.13
2017-09-12T02:59:46.068Z,10.40
2017-09-12T03:02:13.871Z,17.07
2017-09-12T03:04:42.506Z,8.63
2017-09-12T03:07:10.373Z,15.07
2017-09-12T03:09:38.271Z,17.67
2017-09-12T03:12:06.101Z,12.33
2017-09-12T03:14:34.004Z,13.93
2017-09-12T03:17:01.961Z,16.60
2017-09-12T03:19:29.818Z,14.43
2017-09-12T03:21:57.701Z,19.30
2017-09-12T03:24:25.559Z,18.67
2017-09-12T03:26:53.455Z,26.03
2017-09-12T03:29:21.333Z,36.50
2017-09-12T03:31:49.160Z,29.90
2017-09-12T03:34:16.984Z,23.80
2017-09-12T03:36:44.829Z,30.70
2017-09-12T03:39:12.724Z,17.67
2017-09-12T03:41:40.617Z,37.57
2017-09-12T03:44:08.497Z,26.23
2017-09-12T03:46:36.444Z,24.63
2017-09-12T03:49:04.470Z,27.03
2017-09-12T03:51:32.377Z,26.73
2017-09-12T03:54:00.327Z,32.37
2017-09-12T03:56:28.320Z,33.20
2017-09-12T03:58:56.250Z,24.63
2017-09-12T04:01:24.130Z,22.73
2017-09-12T04:03:52.023Z,18.60
2017-09-12T04:06:19.944Z,30.27
2017-09-12T04:08:48.648Z,37.73
2017-09-12T04:11:16.575Z,23.33
2017-09-12T04:13:44.523Z,13.53
2017-09-12T04:16:12.546Z,25.17
2017-09-12T04:18:40.579Z,14.63
2017-09-12T04:21:08.471Z,16.03
2017-09-12T04:23:36.388Z,15.57
2017-09-12T04:26:04.372Z,19.53
2017-09-12T04:28:32.258Z,12.17
2017-09-12T04:31:00.174Z,18.60
2017-09-12T04:33:28.188Z,17.60
2017-09-12T04:35:56.019Z,26.13
2017-09-12T04:38:23.913Z,20.03
2017-09-12T04:40:51.828Z,16.47
2017-09-12T04:43:19.791Z,20.23
2017-09-12T04:45:47.749Z,21.90
2017-09-12T04:48:15.713Z,18.03
2017-09-12T04:50:43.569Z,23.30
2017-09-12T04:53:11.407Z,21.80
2017-09-12T04:55:39.229Z,17.80
2017-09-12T04:58:07.114Z,23.07
2017-09-12T05:00:35.103Z,21.17
2017-09-12T05:03:03.046Z,21.87
2017-09-12T05:05:31.001Z,30.90
2017-09-12T05:07:58.893Z,18.23
2017-09-12T05:10:26.768Z,18.80
2017-09-12T05:12:54.674Z,19.73
2017-09-12T05:15:22.512Z,21.97
2017-09-12T05:17:50.358Z,17.83
2017-09-12T05:20:18.234Z,15.87
2017-09-12T05:22:46.095Z,22.53
2017-09-12T05:25:13.931Z,14.63
2017-09-12T05:27:41.760Z,23.27
2017-09-12T05:30:09.588Z,18.00
2017-09-12T05:32:37.461Z,14.77
2017-09-12T05:35:05.383Z,17.53
2017-09-12T05:37:33.244Z,15.23
2017-09-12T05:40:01.090Z,13.93
2017-09-12T05:42:29.005Z,13.37
2017-09-12T05:44:56.868Z,11.23
2017-09-12T05:47:24.785Z,19.70
2017-09-12T05:49:52.696Z,11.23
2017-09-12T05:52:20.669Z,17.27
2017-09-12T05:54:48.538Z,19.60
2017-09-12T06:53:20.679Z,20.73
2017-09-12T06:55:49.409Z,25.33
2017-09-12T06:58:17.357Z,26.50
2017-09-12T07:00:45.403Z,25.20
2017-09-12T07:03:13.263Z,21.80
2017-09-12T07:05:41.211Z,30.87
2017-09-12T07:08:09.888Z,32.93
2017-09-12T07:27:08.857Z,15.10
2017-09-12T07:29:36.709Z,13.97
2017-09-12T07:32:04.548Z,16.77
2017-09-12T07:34:32.369Z,12.23
2017-09-12T07:37:00.198Z,23.10
2017-09-12T07:39:28.122Z,12.87
2017-09-12T07:41:56.008Z,14.97
2017-09-12T07:44:24.033Z,17.83
2017-09-12T07:46:51.863Z,22.13
2017-09-12T07:49:19.668Z,21.90
2017-09-12T07:51:47.539Z,19.93
2017-09-12T07:54:15.401Z,9.97
2017-09-12T07:56:43.215Z,13.63
2017-09-12T07:59:11.096Z,14.43
2017-09-12T08:01:38.994Z,18.03
2017-09-12T08:04:06.867Z,30.67
2017-09-12T08:06:34.792Z,19.83
2017-09-12T08:09:02.879Z,24.27
2017-09-12T08:11:30.741Z,11.07
2017-09-12T08:13:58.700Z,20.53
2017-09-12T08:16:26.632Z,14.30
2017-09-12T08:18:54.562Z,17.00
2017-09-12T08:21:23.281Z,16.93
2017-09-12T08:23:51.143Z,19.97
2017-09-12T08:26:19.785Z,20.97
2017-09-12T08:28:47.637Z,19.40
2017-09-12T08:31:16.249Z,21.03
2017-09-12T08:33:44.103Z,17.40
2017-09-12T08:36:11.943Z,22.23
2017-09-12T08:38:39.831Z,17.13
2017-09-12T08:41:07.689Z,15.10
2017-09-12T08:43:35.551Z,16.80
2017-09-12T08:46:03.410Z,12.63
2017-09-12T08:48:31.260Z,20.23
2017-09-12T08:50:59.239Z,14.30
2017-09-12T08:53:27.160Z,6.73
2017-09-12T08:55:54.981Z,16.50
2017-09-12T08:58:22.800Z,15.87
2017-09-12T09:00:51.392Z,11.23
2017-09-12T09:03:20.018Z,15.80
2017-09-12T09:05:47.880Z,11.93
2017-09-12T09:08:15.704Z,19.70
2017-09-12T09:10:44.443Z,15.03
2017-09-12T09:13:12.358Z,15.33
2017-09-12T09:15:41.009Z,15.27
2017-09-12T09:18:08.892Z,9.77
2017-09-12T09:20:36.765Z,13.27
2017-09-12T09:23:04.613Z,12.63
2017-09-12T09:25:32.502Z,12.37
2017-09-12T09:28:00.385Z,13.90
2017-09-12T09:30:29.663Z,18.70
2017-09-12T09:32:57.596Z,22.10
2017-09-12T09:35:26.389Z,12.97
2017-09-12T09:37:54.413Z,16.63
2017-09-12T09:40:23.089Z,20.47
2017-09-12T09:42:51.867Z,15.23
2017-09-12T09:45:19.790Z,16.60
2017-09-12T09:47:48.621Z,15.43
2017-09-12T09:50:17.216Z,23.23
2017-09-12T09:52:45.945Z,14.73
2017-09-12T09:55:13.886Z,23.73
2017-09-12T09:57:44.163Z,13.17
2017-09-12T10:00:12.022Z,17.90
2017-09-12T10:02:39.971Z,15.60
2017-09-12T10:05:07.888Z,14.77
2017-09-12T10:07:36.601Z,14.07
2017-09-12T10:10:04.422Z,26.30
2017-09-12T10:12:32.246Z,17.37
2017-09-12T10:15:00.092Z,14.17
2017-09-12T10:17:27.936Z,15.77
2017-09-12T10:19:55.777Z,13.17
2017-09-12T10:22:23.675Z,23.97
2017-09-12T10:24:52.304Z,15.77
2017-09-12T10:27:20.141Z,18.30
2017-09-12T10:29:48.024Z,17.07
2017-09-12T10:32:15.938Z,10.33
2017-09-12T10:34:43.826Z,13.57
2017-09-12T10:37:13.346Z,20.83
2017-09-12T10:39:42.038Z,12.10
2017-09-12T10:42:10.727Z,20.90
2017-09-12T10:44:38.633Z,53.07
2017-09-12T10:47:06.512Z,33.53
2017-09-12T10:49:34.341Z,33.73
2017-09-12T10:52:02.163Z,25.50
2017-09-12T10:54:30.792Z,32.17
2017-09-12T10:56:58.692Z,28.00
2017-09-12T10:59:26.549Z,37.43
2017-09-12T11:01:54.590Z,24.83
2017-09-12T11:04:22.504Z,18.33
2017-09-12T11:06:50.417Z,13.83
2017-09-12T11:09:18.284Z,23.07
2017-09-12T11:11:46.264Z,13.40
2017-09-12T11:14:14.108Z,26.03
2017-09-12T11:16:42.935Z,23.47
2017-09-12T11:19:10.888Z,16.73
2017-09-12T11:21:38.893Z,14.97
2017-09-12T11:24:06.815Z,11.67
2017-09-12T11:26:34.779Z,20.77
2017-09-12T11:29:02.631Z,20.20
2017-09-12T11:31:32.297Z,15.07
2017-09-12T11:34:00.164Z,16.97
2017-09-12T11:36:28.704Z,15.00
2017-09-12T11:38:57.545Z,11.87
2017-09-12T11:41:26.362Z,18.73
2017-09-12T11:43:55.080Z,12.80
2017-09-12T11:46:23.032Z,11.57
2017-09-12T11:51:25.143Z,13.40
2017-09-12T11:53:53.133Z,22.27
2017-09-12T11:56:21.008Z,9.23
2017-09-12T11:58:48.921Z,12.10
2017-09-12T12:01:16.846Z,11.20
2017-09-12T12:03:44.730Z,12.10
2017-09-12T12:06:14.107Z,9.63
2017-09-12T12:08:41.977Z,13.03
2017-09-12T12:11:09.882Z,10.73
2017-09-12T12:13:38.545Z,10.30
2017-09-12T12:16:06.516Z,12.10
2017-09-12T12:18:35.564Z,12.00
2017-09-12T12:21:03.419Z,9.87
2017-09-12T12:23:31.412Z,13.00
2017-09-12T12:25:59.311Z,16.97
2017-09-12T12:28:27.964Z,22.40
2017-09-12T12:30:56.968Z,12.90
2017-09-12T12:33:25.009Z,15.33
2017-09-12T12:35:53.133Z,12.47
2017-09-12T12:38:22.789Z,14.83
2017-09-12T12:40:50.669Z,12.90
2017-09-12T12:43:19.652Z,12.90
2017-09-12T12:45:48.160Z,11.80
2017-09-12T12:48:16.333Z,14.80
2017-09-12T12:50:44.197Z,8.63
2017-09-12T12:53:12.144Z,15.30
2017-09-12T12:55:40.022Z,11.83
2017-09-12T12:58:08.718Z,13.83
2017-09-12T13:00:36.644Z,17.23
2017-09-12T13:03:05.304Z,16.53
2017-09-12T13:05:34.033Z,18.53
2017-09-12T13:08:01.921Z,13.00
2017-09-12T13:10:29.872Z,16.43
2017-09-12T13:12:57.780Z,22.63
2017-09-12T13:15:25.726Z,15.13
2017-09-12T13:17:53.628Z,11.20
2017-09-12T13:20:21.612Z,12.83
2017-09-12T13:22:49.431Z,15.53
2017-09-12T13:25:17.280Z,12.83
2017-09-12T13:27:47.285Z,17.83
2017-09-12T13:30:15.258Z,16.37
2017-09-12T13:32:44.229Z,13.07
2017-09-12T13:35:12.140Z,11.37
2017-09-12T13:37:39.980Z,19.47
2017-09-12T13:40:07.861Z,16.27
2017-09-12T13:42:35.689Z,16.33
2017-09-12T13:45:03.609Z,17.53
2017-09-12T13:47:31.580Z,15.70
2017-09-12T13:49:59.431Z,13.63
2017-09-12T13:52:28.121Z,15.40
2017-09-12T13:54:56.120Z,14.17
2017-09-12T13:57:24.738Z,13.90
2017-09-12T13:59:52.658Z,14.53
2017-09-12T14:02:20.562Z,15.93
2017-09-12T14:04:49.057Z,12.63
2017-09-12T14:07:17.046Z,11.03
2017-09-12T14:09:44.974Z,11.17
2017-09-12T14:12:13.789Z,9.70
2017-09-12T14:14:41.729Z,11.30
2017-09-12T14:17:09.631Z,14.43
2017-09-12T14:19:37.580Z,12.83
2017-09-12T14:22:05.537Z,15.40
2017-09-12T14:24:33.527Z,17.73
2017-09-12T14:27:01.426Z,16.20
2017-09-12T14:29:29.344Z,15.47
2017-09-12T14:31:57.201Z,15.13
2017-09-12T14:34:25.961Z,9.50
2017-09-12T14:36:53.804Z,18.07
2017-09-12T14:39:21.693Z,16.67
2017-09-12T14:41:49.659Z,16.23
2017-09-12T14:44:17.611Z,11.23
2017-09-12T14:46:45.575Z,15.43
2017-09-12T14:49:14.402Z,10.73
2017-09-12T14:51:43.172Z,16.50
2017-09-12T14:54:11.032Z,9.83
2017-09-12T14:56:39.821Z,10.43
2017-09-12T14:59:07.726Z,13.37
2017-09-12T15:01:36.389Z,9.60
2017-09-12T15:04:04.254Z,7.57
2017-09-12T15:06:33.758Z,14.77
2017-09-12T15:09:01.722Z,12.80
2017-09-12T15:11:30.392Z,7.53
2017-09-12T15:13:58.371Z,9.93
2017-09-12T15:16:26.270Z,9.57
2017-09-12T15:18:54.929Z,17.47
2017-09-12T15:21:22.768Z,9.60
2017-09-12T15:23:50.701Z,14.03
2017-09-12T15:26:19.394Z,8.63
2017-09-12T15:28:47.230Z,10.77
2017-09-12T15:31:15.935Z,17.80
2017-09-12T15:33:44.753Z,9.03
2017-09-12T15:36:12.647Z,13.90
2017-09-12T15:38:40.646Z,9.93
2017-09-12T15:41:08.608Z,13.23
2017-09-12T15:43:37.288Z,12.60
2017-09-12T15:46:06.121Z,13.60
2017-09-12T15:48:34.708Z,9.13
2017-09-12T15:51:02.567Z,9.57
2017-09-12T15:53:30.589Z,24.33
2017-09-12T15:55:58.531Z,13.73
2017-09-12T15:58:26.409Z,6.47
2017-09-12T16:00:54.279Z,9.87
2017-09-12T16:03:22.217Z,5.93
2017-09-12T16:05:50.055Z,7.37
2017-09-12T16:08:18.020Z,9.25
2017-09-12T16:10:46.718Z,12.40
2017-09-12T16:13:14.570Z,9.70
2017-09-12T16:15:42.442Z,6.17
2017-09-12T16:18:10.375Z,12.40
2017-09-12T16:20:38.244Z,17.53
2017-09-12T16:23:07.045Z,18.80
2017-09-12T16:28:56.471Z,15.63
2017-09-12T16:31:24.374Z,11.00
2017-09-12T16:33:52.213Z,10.87
2017-09-12T16:36:20.114Z,16.10
2017-09-12T16:38:47.992Z,11.83
2017-09-12T16:41:15.915Z,11.50
2017-09-12T16:43:43.934Z,9.40
2017-09-12T16:46:11.831Z,7.07
2017-09-12T16:48:40.934Z,6.37
2017-09-12T16:51:08.986Z,8.30
2017-09-12T16:53:37.452Z,5.93
2017-09-12T16:56:06.160Z,9.07
2017-09-12T16:58:34.057Z,12.23
2017-09-12T17:01:02.013Z,8.90
2017-09-12T17:03:30.228Z,7.13
2017-09-12T17:05:58.127Z,13.23
2017-09-12T17:08:26.748Z,11.93
2017-09-12T17:10:59.433Z,6.80
2017-09-12T17:13:32.007Z,11.00
2017-09-12T17:16:16.648Z,13.07
2017-09-12T17:18:46.956Z,11.27
2017-09-12T17:21:15.557Z,10.70
2017-09-12T17:23:43.357Z,11.00
2017-09-12T17:26:11.207Z,9.23
2017-09-12T17:28:39.120Z,10.33
2017-09-12T17:31:07.060Z,14.13
2017-09-12T17:33:34.876Z,9.97
2017-09-12T17:36:02.717Z,14.17
2017-09-12T17:38:30.518Z,15.70
2017-09-12T17:40:59.110Z,8.63
2017-09-12T17:43:26.898Z,14.73
2017-09-12T17:45:54.831Z,12.33
2017-09-12T17:48:22.717Z,8.00
2017-09-12T17:50:50.632Z,10.37
2017-09-12T17:53:18.425Z,12.87
2017-09-12T17:55:47.001Z,14.37
2017-09-12T17:58:15.566Z,17.73
2017-09-12T18:00:43.428Z,16.63
2017-09-12T18:03:11.318Z,24.67
2017-09-12T18:05:39.253Z,20.42
2017-09-12T18:08:07.067Z,22.50
2017-09-12T18:10:34.896Z,18.03
2017-09-12T18:13:02.762Z,24.20
2017-09-12T18:15:30.569Z,23.57
2017-09-12T18:17:58.393Z,19.37
2017-09-12T18:20:26.206Z,25.93
2017-09-12T18:22:54.020Z,20.63
2017-09-12T18:25:21.933Z,27.20
2017-09-12T18:27:49.760Z,27.67
2017-09-12T18:30:17.665Z,29.93
2017-09-12T18:32:47.352Z,33.00
2017-09-12T18:35:16.013Z,29.27
2017-09-12T18:37:43.900Z,27.43
2017-09-12T18:40:12.563Z,25.07
2017-09-12T18:42:41.186Z,28.63
2017-09-12T18:45:09.033Z,27.67
2017-09-12T18:47:37.634Z,26.00
2017-09-12T18:50:05.471Z,30.20
2017-09-12T18:52:33.296Z,23.90
2017-09-12T18:55:01.314Z,22.73
2017-09-12T18:57:29.178Z,30.60
2017-09-12T18:59:57.014Z,21.90
2017-09-12T19:02:24.816Z,25.80
2017-09-12T19:04:53.458Z,36.67
2017-09-12T19:07:21.244Z,24.43
2017-09-12T19:09:49.207Z,22.97
2017-09-12T19:12:17.187Z,24.30
2017-09-12T19:14:45.049Z,22.70
2017-09-12T19:17:12.856Z,35.47
2017-09-12T19:19:40.702Z,24.97
2017-09-12T19:22:09.351Z,26.47
2017-09-12T19:24:37.202Z,34.13
2017-09-12T19:27:05.031Z,42.97
2017-09-12T19:29:33.093Z,30.90
2017-09-12T19:32:01.693Z,32.67
2017-09-12T19:34:29.617Z,58.20
2017-09-12T19:36:57.459Z,34.27
2017-09-12T19:39:25.257Z,42.40
2017-09-12T19:41:53.080Z,44.13
2017-09-12T19:44:20.881Z,19.30
2017-09-12T19:46:48.767Z,41.00
2017-09-12T19:49:17.322Z,21.87
2017-09-12T19:51:45.172Z,20.40
2017-09-12T19:54:12.955Z,21.73
2017-09-12T19:56:40.838Z,28.03
2017-09-12T19:59:09.406Z,26.63
2017-09-12T20:01:37.416Z,20.50
2017-09-12T20:04:05.245Z,25.97
2017-09-12T20:06:33.094Z,18.50
2017-09-12T20:09:00.961Z,25.30
2017-09-12T20:11:28.933Z,22.60
2017-09-12T20:13:56.717Z,22.37
2017-09-12T20:16:25.116Z,17.93
2017-09-12T20:18:52.935Z,21.83
2017-09-12T20:21:20.804Z,21.73
2017-09-12T20:23:48.707Z,22.37
2017-09-12T20:26:18.120Z,24.47
2017-09-12T20:28:47.107Z,25.33
2017-09-12T20:31:20.756Z,22.37
2017-09-12T20:33:48.579Z,18.90
2017-09-12T20:36:17.355Z,13.27
2017-09-12T20:38:45.984Z,18.43
2017-09-12T20:41:13.785Z,16.23
2017-09-12T20:43:41.584Z,22.43
2017-09-12T20:46:10.186Z,22.23
2017-09-12T20:48:38.139Z,20.20
2017-09-12T20:51:07.164Z,27.40
2017-09-12T20:53:34.996Z,18.43
2017-09-12T20:56:02.789Z,15.90
2017-09-12T20:58:30.607Z,22.27
2017-09-12T21:00:58.425Z,22.60
2017-09-12T21:03:26.244Z,17.30
2017-09-12T21:05:54.826Z,21.77
2017-09-12T21:08:23.424Z,17.10
2017-09-12T21:10:51.241Z,20.07
2017-09-12T21:13:19.039Z,18.83
2017-09-12T21:15:47.620Z,30.60
2017-09-12T21:18:16.384Z,13.33
2017-09-12T21:20:44.188Z,13.27
2017-09-12T21:23:12.019Z,13.73
2017-09-12T21:25:40.296Z,18.00
2017-09-12T21:28:08.127Z,16.37
2017-09-12T21:30:36.007Z,15.97
2017-09-12T21:33:03.924Z,16.13
2017-09-12T21:35:32.484Z,21.80
2017-09-12T21:38:00.455Z,12.30
2017-09-12T21:40:28.264Z,19.20
2017-09-12T21:42:56.078Z,15.83
2017-09-12T21:45:23.965Z,14.37
2017-09-12T21:47:52.537Z,15.60
2017-09-12T21:50:20.360Z,13.83
2017-09-12T21:52:49.041Z,18.37
2017-09-12T21:55:16.852Z,11.20
2017-09-12T21:57:44.633Z,24.07
2017-09-12T22:00:13.270Z,18.60
2017-09-12T22:02:41.282Z,22.80
2017-09-12T22:05:09.217Z,13.40
2017-09-12T22:07:37.052Z,12.83
2017-09-12T22:10:04.858Z,18.40
2017-09-12T22:12:32.680Z,23.57
2017-09-12T22:15:00.493Z,20.30
2017-09-12T22:17:28.316Z,22.93
2017-09-12T22:19:56.122Z,16.27
2017-09-12T22:22:23.965Z,16.17
2017-09-12T22:24:51.772Z,15.50
2017-09-12T22:27:20.320Z,20.50
2017-09-12T22:29:48.203Z,15.73
2017-09-12T22:32:16.035Z,16.13
2017-09-12T22:34:43.953Z,25.47
2017-09-12T22:37:12.557Z,19.37
2017-09-12T22:39:40.472Z,17.20
2017-09-12T22:42:08.265Z,17.33
2017-09-12T22:44:36.831Z,12.33
2017-09-12T22:47:04.620Z,19.80
2017-09-12T22:49:33.160Z,19.27
2017-09-12T22:52:00.947Z,15.50
2017-09-12T22:54:28.748Z,11.73
2017-09-12T22:56:56.555Z,15.83
2017-09-12T22:59:24.347Z,9.90
2017-09-12T23:01:52.203Z,13.70
2017-09-12T23:04:20.064Z,20.33
2017-09-12T23:06:47.864Z,19.97
2017-09-12T23:09:16.491Z,19.07
2017-09-12T23:11:44.283Z,14.60
2017-09-12T23:14:12.074Z,14.17
2017-09-12T23:16:40.637Z,19.33
2017-09-12T23:19:08.445Z,19.27
2017-09-12T23:21:36.231Z,17.73
2017-09-12T23:24:04.117Z,21.17
2017-09-12T23:26:31.934Z,22.07
2017-09-12T23:28:59.737Z,16.57
2017-09-12T23:31:27.543Z,13.97
2017-09-12T23:33:56.080Z,12.70
2017-09-12T23:36:23.905Z,18.13
2017-09-12T23:38:51.684Z,18.37
2017-09-12T23:41:19.554Z,18.03
2017-09-12T23:43:47.418Z,15.87
2017-09-12T23:46:15.197Z,14.57
2017-09-12T23:48:42.976Z,8.80
2017-09-12T23:51:10.772Z,15.77
2017-09-12T23:53:39.411Z,16.80
2017-09-12T23:56:07.225Z,17.77
2017-09-12T23:58:35.813Z,13.53
